createdAt,value
2023-01-03T00:01:56.009Z,21.93
2023-01-03T00:04:23.757Z,21.42
2023-01-03T00:06:53.573Z,25.25
2023-01-03T00:09:23.937Z,27.87
2023-01-03T00:12:12.936Z,28.62
2023-01-03T00:14:43.309Z,28.73
2023-01-03T00:17:12.533Z,23.50
2023-01-03T00:19:44.661Z,27.30
2023-01-03T00:22:15.259Z,31.80
2023-01-03T00:24:47.799Z,33.08
2023-01-03T00:27:16.648Z,34.23
2023-01-03T00:29:44.922Z,40.55
2023-01-03T00:32:13.053Z,40.33
2023-01-03T00:34:44.434Z,40.92
2023-01-03T00:37:14.076Z,41.37
2023-01-03T00:39:43.369Z,48.15
2023-01-03T00:42:11.268Z,46.98
2023-01-03T00:44:39.134Z,47.48
2023-01-03T00:47:06.750Z,46.60
2023-01-03T00:49:34.693Z,44.95
2023-01-03T00:52:02.424Z,41.42
2023-01-03T00:54:29.919Z,42.53
2023-01-03T00:56:57.551Z,49.77
2023-01-03T00:59:26.616Z,43.85
2023-01-03T01:01:56.777Z,45.92
2023-01-03T01:04:31.035Z,44.25
2023-01-03T01:07:02.246Z,38.83
2023-01-03T01:09:34.213Z,39.00
2023-01-03T01:12:02.526Z,34.88
2023-01-03T01:14:33.198Z,32.53
2023-01-03T01:17:04.906Z,28.95
2023-01-03T01:19:39.984Z,29.02
2023-01-03T01:22:08.488Z,25.85
2023-01-03T01:24:36.348Z,23.20
2023-01-03T01:27:04.367Z,21.50
2023-01-03T01:29:32.279Z,23.02
2023-01-03T01:32:01.244Z,22.02
2023-01-03T01:34:29.981Z,18.05
2023-01-03T01:36:57.811Z,16.77
2023-01-03T01:39:28.700Z,15.83
2023-01-03T01:42:20.572Z,16.00
2023-01-03T01:44:57.303Z,15.18
2023-01-03T01:47:54.510Z,14.73
2023-01-03T01:50:38.962Z,14.65
2023-01-03T01:53:14.877Z,14.38
2023-01-03T01:56:03.026Z,14.15
2023-01-03T01:58:37.555Z,13.80
2023-01-03T02:01:12.163Z,22.95
2023-01-03T02:03:43.231Z,19.70
2023-01-03T02:06:15.074Z,17.85
2023-01-03T02:08:42.733Z,19.27
2023-01-03T02:11:27.973Z,21.42
2023-01-03T02:14:20.761Z,16.57
2023-01-03T02:16:56.682Z,14.10
2023-01-03T02:20:04.791Z,9.98
2023-01-03T02:23:16.669Z,9.05
2023-01-03T02:26:29.231Z,8.15
2023-01-03T02:29:18.992Z,7.45
2023-01-03T02:32:28.220Z,7.65
2023-01-03T02:35:04.007Z,7.10
2023-01-03T02:38:09.291Z,6.72
2023-01-03T02:40:49.821Z,6.67
2023-01-03T02:43:34.845Z,7.65
2023-01-03T02:46:22.662Z,9.48
2023-01-03T02:49:06.416Z,13.75
2023-01-03T02:51:44.874Z,11.40
2023-01-03T02:54:17.930Z,9.38
2023-01-03T02:56:50.986Z,9.75
2023-01-03T02:59:24.762Z,9.70
2023-01-03T03:01:56.763Z,9.28
2023-01-03T03:04:26.334Z,9.95
2023-01-03T03:07:05.651Z,9.80
2023-01-03T03:09:40.559Z,9.95
2023-01-03T03:12:31.389Z,10.80
2023-01-03T03:15:00.518Z,11.18
2023-01-03T03:17:33.919Z,11.00
2023-01-03T03:20:33.220Z,11.10
2023-01-03T03:23:33.597Z,10.55
2023-01-03T03:26:25.980Z,10.43
2023-01-03T03:29:10.755Z,10.10
2023-01-03T03:31:50.689Z,9.33
2023-01-03T03:34:29.355Z,8.60
2023-01-03T03:37:08.038Z,7.87
2023-01-03T03:39:55.357Z,8.23
2023-01-03T03:43:08.862Z,7.90
2023-01-03T03:45:43.474Z,8.10
2023-01-03T03:48:36.289Z,9.45
2023-01-03T03:51:12.470Z,9.25
2023-01-03T03:53:42.405Z,10.00
2023-01-03T03:56:17.223Z,10.68
2023-01-03T03:58:49.553Z,10.50
2023-01-03T04:01:20.566Z,9.55
2023-01-03T04:03:51.472Z,9.80
2023-01-03T04:06:24.510Z,13.83
2023-01-03T04:08:52.230Z,12.23
2023-01-03T04:11:20.440Z,10.63
2023-01-03T04:13:48.113Z,10.80
2023-01-03T04:16:15.737Z,11.48
2023-01-03T04:18:43.474Z,12.30
2023-01-03T04:21:18.741Z,11.50
2023-01-03T04:23:43.195Z,10.72
2023-01-03T04:26:11.005Z,13.75
2023-01-03T04:28:38.911Z,14.93
2023-01-03T04:31:06.506Z,15.88
2023-01-03T04:33:34.175Z,15.65
2023-01-03T04:36:01.723Z,17.12
2023-01-03T04:38:29.421Z,17.55
2023-01-03T04:41:06.336Z,15.15
2023-01-03T04:43:52.713Z,13.93
2023-01-03T04:46:20.843Z,28.12
2023-01-03T04:48:48.733Z,27.98
2023-01-03T04:51:16.469Z,24.00
2023-01-03T04:53:44.087Z,15.55
2023-01-03T04:56:11.832Z,15.13
2023-01-03T04:58:39.372Z,18.85
2023-01-03T05:01:07.764Z,18.65
2023-01-03T05:03:37.582Z,18.80
2023-01-03T05:06:08.223Z,18.23
2023-01-03T05:08:35.875Z,19.70
2023-01-03T05:11:03.881Z,21.12
2023-01-03T05:13:33.393Z,20.20
2023-01-03T05:16:13.308Z,18.42
2023-01-03T05:18:42.046Z,17.45
2023-01-03T05:21:35.786Z,16.55
2023-01-03T05:24:22.956Z,14.15
2023-01-03T05:26:52.153Z,16.25
2023-01-03T05:29:21.608Z,15.30
2023-01-03T05:31:49.649Z,14.58
2023-01-03T05:34:17.274Z,15.28
2023-01-03T05:36:45.178Z,17.00
2023-01-03T05:39:13.631Z,17.37
2023-01-03T05:41:59.736Z,19.35
2023-01-03T05:44:32.713Z,16.20
2023-01-03T05:47:02.150Z,17.05
2023-01-03T05:49:29.900Z,16.30
2023-01-03T05:51:57.682Z,16.75
2023-01-03T05:54:25.401Z,16.93
2023-01-03T05:56:53.286Z,20.70
2023-01-03T05:59:22.149Z,22.15
2023-01-03T06:01:50.611Z,24.18
2023-01-03T06:04:19.643Z,24.32
2023-01-03T06:06:47.949Z,22.93
2023-01-03T06:09:15.758Z,22.52
2023-01-03T06:11:43.566Z,24.82
2023-01-03T06:14:11.590Z,26.73
2023-01-03T06:16:58.159Z,26.68
2023-01-03T06:19:25.777Z,24.90
2023-01-03T06:21:53.140Z,21.37
2023-01-03T06:24:20.723Z,24.05
2023-01-03T06:26:48.404Z,30.55
2023-01-03T06:29:16.303Z,27.22
2023-01-03T06:31:44.198Z,24.43
2023-01-03T06:34:11.669Z,23.83
2023-01-03T06:36:39.288Z,50.15
2023-01-03T06:39:08.268Z,48.35
2023-01-03T06:41:36.139Z,40.73
2023-01-03T06:44:04.013Z,48.10
2023-01-03T06:46:49.884Z,43.13
2023-01-03T06:49:36.486Z,52.30
2023-01-03T06:52:27.184Z,63.42
2023-01-03T06:54:54.867Z,45.25
2023-01-03T06:57:26.221Z,52.62
2023-01-03T06:59:51.916Z,55.38
2023-01-03T07:02:19.870Z,41.18
2023-01-03T07:04:47.774Z,27.30
2023-01-03T07:07:15.477Z,71.40
2023-01-03T07:09:43.049Z,30.75
2023-01-03T07:12:29.263Z,28.40
2023-01-03T07:14:56.793Z,27.62
2023-01-03T07:17:24.355Z,26.95
2023-01-03T07:19:52.092Z,26.97
2023-01-03T07:22:19.661Z,24.23
2023-01-03T07:24:47.232Z,25.80
2023-01-03T07:27:14.829Z,26.87
2023-01-03T07:29:42.417Z,27.00
2023-01-03T07:32:09.957Z,25.48
2023-01-03T07:34:37.513Z,26.33
2023-01-03T07:37:05.075Z,29.05
2023-01-03T07:39:32.648Z,29.92
2023-01-03T07:42:18.642Z,29.48
2023-01-03T07:44:46.190Z,31.55
2023-01-03T07:47:14.219Z,25.40
2023-01-03T07:49:42.055Z,20.35
2023-01-03T07:52:09.789Z,17.98
2023-01-03T07:54:37.521Z,17.27
2023-01-03T07:57:05.094Z,17.45
2023-01-03T07:59:32.685Z,18.77
2023-01-03T08:01:59.970Z,21.35
2023-01-03T08:04:27.952Z,22.67
2023-01-03T08:06:55.616Z,20.65
2023-01-03T08:09:41.648Z,18.75
2023-01-03T08:12:29.669Z,18.35
2023-01-03T08:14:57.226Z,14.43
2023-01-03T08:17:24.456Z,14.55
2023-01-03T08:19:51.790Z,13.65
2023-01-03T08:22:19.150Z,12.55
2023-01-03T08:24:46.572Z,12.47
2023-01-03T08:27:14.140Z,13.78
2023-01-03T08:29:41.573Z,13.80
2023-01-03T08:32:09.086Z,12.25
2023-01-03T08:34:37.784Z,12.05
2023-01-03T08:37:09.613Z,15.70
2023-01-03T08:39:45.627Z,17.70
2023-01-03T08:42:16.830Z,16.70
2023-01-03T08:44:44.460Z,14.98
2023-01-03T08:47:14.210Z,18.00
2023-01-03T08:49:42.096Z,15.32
2023-01-03T08:52:09.622Z,13.13
2023-01-03T08:54:38.645Z,14.93
2023-01-03T08:57:06.364Z,14.78
2023-01-03T08:59:33.907Z,16.02
2023-01-03T09:02:02.345Z,14.78
2023-01-03T09:04:29.930Z,12.88
2023-01-03T09:06:57.547Z,13.43
2023-01-03T09:09:24.876Z,13.15
2023-01-03T09:11:52.315Z,13.50
2023-01-03T09:14:19.983Z,14.43
2023-01-03T09:16:49.549Z,14.58
2023-01-03T09:19:17.338Z,14.45
2023-01-03T09:21:44.621Z,15.10
2023-01-03T09:24:12.557Z,14.83
2023-01-03T09:26:40.272Z,15.85
2023-01-03T09:29:07.823Z,14.47
2023-01-03T09:31:36.572Z,15.85
2023-01-03T09:34:04.850Z,16.80
2023-01-03T09:36:32.675Z,17.27
2023-01-03T09:39:00.244Z,16.90
2023-01-03T09:41:28.184Z,16.75
2023-01-03T09:44:00.265Z,16.23
2023-01-03T09:46:29.333Z,15.45
2023-01-03T09:48:57.460Z,15.88
2023-01-03T09:51:59.723Z,17.25
2023-01-03T09:54:53.321Z,16.85
2023-01-03T09:57:55.231Z,18.30
2023-01-03T10:00:52.543Z,19.37
2023-01-03T10:03:50.430Z,16.70
2023-01-03T10:06:36.813Z,16.85
2023-01-03T10:09:38.495Z,15.40
2023-01-03T10:12:47.355Z,15.80
2023-01-03T10:15:22.929Z,16.30
2023-01-03T10:18:40.299Z,16.40
2023-01-03T10:21:19.347Z,16.57
2023-01-03T10:23:48.670Z,16.20
2023-01-03T10:26:16.107Z,16.40
2023-01-03T10:28:46.264Z,15.00
2023-01-03T10:31:34.269Z,13.80
2023-01-03T10:34:05.001Z,13.95
2023-01-03T10:36:32.549Z,14.30
2023-01-03T10:39:07.943Z,13.48
2023-01-03T10:41:45.680Z,14.43
2023-01-03T10:44:32.382Z,15.20
2023-01-03T10:47:14.407Z,13.80
2023-01-03T10:49:47.001Z,16.48
2023-01-03T10:52:21.687Z,14.45
2023-01-03T10:54:56.465Z,15.45
2023-01-03T10:57:46.476Z,16.90
2023-01-03T11:00:28.527Z,17.48
2023-01-03T11:03:03.284Z,15.80
2023-01-03T11:05:31.250Z,15.48
2023-01-03T11:08:03.189Z,14.75
2023-01-03T11:10:36.280Z,16.67
2023-01-03T11:13:39.777Z,17.67
2023-01-03T11:16:17.684Z,16.03
2023-01-03T11:19:01.720Z,16.35
2023-01-03T11:21:55.300Z,16.50
2023-01-03T11:24:52.557Z,15.78
2023-01-03T11:27:28.436Z,15.75
2023-01-03T11:30:20.286Z,14.78
2023-01-03T11:33:29.139Z,15.30
2023-01-03T11:36:27.133Z,15.13
2023-01-03T11:39:24.676Z,15.88
2023-01-03T11:42:13.708Z,15.72
2023-01-03T11:45:26.546Z,15.08
2023-01-03T11:48:20.093Z,16.73
2023-01-03T11:50:59.449Z,17.42
2023-01-03T11:53:37.303Z,16.80
2023-01-03T11:56:36.866Z,17.12
2023-01-03T11:59:19.151Z,16.97
2023-01-03T12:02:16.037Z,19.27
2023-01-03T12:05:35.765Z,16.73
2023-01-03T12:08:23.962Z,16.15
2023-01-03T12:10:59.511Z,17.17
2023-01-03T12:13:44.266Z,17.80
2023-01-03T12:16:21.064Z,16.17
2023-01-03T12:19:12.340Z,16.05
2023-01-03T12:21:46.388Z,14.83
2023-01-03T12:24:46.472Z,15.63
2023-01-03T12:27:20.331Z,18.32
2023-01-03T12:30:27.648Z,18.65
2023-01-03T12:33:18.887Z,18.30
2023-01-03T12:36:07.224Z,18.92
2023-01-03T12:38:42.657Z,19.45
2023-01-03T12:41:40.114Z,18.25
2023-01-03T12:44:21.527Z,18.32
2023-01-03T12:46:54.404Z,21.15
2023-01-03T12:49:30.489Z,19.90
2023-01-03T12:51:59.038Z,20.90
2023-01-03T12:54:43.966Z,16.57
2023-01-03T12:57:44.699Z,17.23
2023-01-03T13:00:44.104Z,19.20
2023-01-03T13:03:25.638Z,21.07
2023-01-03T13:06:02.369Z,20.43
2023-01-03T13:08:48.562Z,18.27
2023-01-03T13:11:26.933Z,19.62
2023-01-03T13:14:23.924Z,22.75
2023-01-03T13:17:16.663Z,16.87
2023-01-03T13:19:58.173Z,17.57
2023-01-03T13:22:51.613Z,17.85
2023-01-03T13:25:40.016Z,17.75
2023-01-03T13:28:22.425Z,17.27
2023-01-03T13:30:53.950Z,19.55
2023-01-03T13:33:21.711Z,20.43
2023-01-03T13:35:54.763Z,22.73
2023-01-03T13:38:35.334Z,24.45
2023-01-03T13:41:18.185Z,22.60
2023-01-03T13:43:40.246Z,21.30
2023-01-03T13:46:19.536Z,21.50
2023-01-03T13:49:02.722Z,20.32
2023-01-03T13:51:46.577Z,20.77
2023-01-03T13:54:19.603Z,17.90
2023-01-03T13:56:58.031Z,17.40
2023-01-03T13:59:47.087Z,17.55
2023-01-03T14:02:40.348Z,18.45
2023-01-03T14:05:58.307Z,17.40
2023-01-03T14:08:37.599Z,16.95
2023-01-03T14:11:28.759Z,16.65
2023-01-03T14:14:07.682Z,18.35
2023-01-03T14:16:58.268Z,21.73
2023-01-03T14:19:37.839Z,19.98
2023-01-03T14:22:28.896Z,21.02
2023-01-03T14:24:56.963Z,22.02
2023-01-03T14:27:40.787Z,19.42
2023-01-03T14:30:24.572Z,25.20
2023-01-03T14:32:52.521Z,27.32
2023-01-03T14:35:39.015Z,23.52
2023-01-03T14:38:29.241Z,23.87
2023-01-03T14:40:58.117Z,25.17
2023-01-03T14:43:28.659Z,35.68
2023-01-03T14:46:01.457Z,49.10
2023-01-03T14:48:29.068Z,54.60
2023-01-03T14:51:03.326Z,43.00
2023-01-03T14:53:34.075Z,33.05
2023-01-03T14:56:02.812Z,30.00
2023-01-03T14:58:39.819Z,29.23
2023-01-03T15:01:10.930Z,27.85
2023-01-03T15:03:43.522Z,33.78
2023-01-03T15:06:25.537Z,32.73
2023-01-03T15:08:57.574Z,29.60
2023-01-03T15:11:40.964Z,24.18
2023-01-03T15:14:13.029Z,23.55
2023-01-03T15:16:42.664Z,19.77
2023-01-03T15:19:21.735Z,19.70
2023-01-03T15:21:49.744Z,20.65
2023-01-03T15:24:23.092Z,21.23
2023-01-03T15:29:30.496Z,34.67
2023-01-03T15:32:00.825Z,34.25
2023-01-03T15:34:41.485Z,36.42
2023-01-03T15:37:19.826Z,32.15
2023-01-03T15:39:52.076Z,25.17
2023-01-03T15:42:45.195Z,22.10
2023-01-03T15:45:22.668Z,26.87
2023-01-03T15:47:57.338Z,30.60
2023-01-03T15:50:49.357Z,37.42
2023-01-03T15:53:30.447Z,38.28
2023-01-03T15:56:12.158Z,38.90
2023-01-03T15:58:40.440Z,38.53
2023-01-03T16:01:09.975Z,43.60
2023-01-03T16:03:38.247Z,45.17
2023-01-03T16:06:06.077Z,55.88
2023-01-03T16:08:36.945Z,87.42
2023-01-03T16:11:20.313Z,104.90
2023-01-03T16:13:55.945Z,90.40
2023-01-03T16:16:35.052Z,52.88
2023-01-03T16:19:04.126Z,38.05
2023-01-03T16:21:32.372Z,32.90
2023-01-03T16:24:01.888Z,38.13
2023-01-03T16:26:29.609Z,40.15
2023-01-03T16:28:58.797Z,43.55
2023-01-03T16:31:32.766Z,39.80
2023-01-03T16:34:02.778Z,41.30
2023-01-03T16:36:38.928Z,41.30
2023-01-03T16:39:15.009Z,44.23
2023-01-03T16:41:48.418Z,47.90
2023-01-03T16:44:16.227Z,45.23
2023-01-03T16:46:45.164Z,36.68
2023-01-03T16:49:12.985Z,37.73
2023-01-03T16:51:47.323Z,36.83
2023-01-03T16:54:13.214Z,37.30
2023-01-03T16:56:41.110Z,35.83
2023-01-03T16:59:16.052Z,38.70
2023-01-03T17:01:43.871Z,36.90
2023-01-03T17:04:12.152Z,32.42
2023-01-03T17:06:41.135Z,33.98
2023-01-03T17:09:18.706Z,31.55
2023-01-03T17:11:47.451Z,31.42
2023-01-03T17:14:21.203Z,31.00
2023-01-03T17:16:50.230Z,29.87
2023-01-03T17:21:55.251Z,32.33
2023-01-03T17:24:26.685Z,32.70
2023-01-03T17:27:03.725Z,34.92
2023-01-03T17:29:31.658Z,35.38
2023-01-03T17:31:59.136Z,37.40
2023-01-03T17:34:30.461Z,36.08
2023-01-03T17:37:00.546Z,42.43
2023-01-03T17:39:28.250Z,43.38
2023-01-03T17:42:12.078Z,44.33
2023-01-03T17:44:39.879Z,45.78
2023-01-03T17:47:41.321Z,46.15
2023-01-03T17:50:09.397Z,45.25
2023-01-03T17:52:38.088Z,44.27
2023-01-03T17:55:22.030Z,39.33
2023-01-03T17:57:50.415Z,39.67
2023-01-03T18:00:28.337Z,38.50
2023-01-03T18:02:56.941Z,40.03
2023-01-03T18:05:28.038Z,40.38
2023-01-03T18:07:59.063Z,35.70
2023-01-03T18:10:45.842Z,31.62
2023-01-03T18:13:32.343Z,31.80
2023-01-03T18:16:00.402Z,30.75
2023-01-03T18:18:29.302Z,27.10
2023-01-03T18:20:57.337Z,29.45
2023-01-03T18:23:32.490Z,30.82
2023-01-03T18:26:04.367Z,32.55
2023-01-03T18:28:32.597Z,32.45
2023-01-03T18:31:00.444Z,36.75
2023-01-03T18:33:28.065Z,37.48
2023-01-03T18:35:56.427Z,37.35
2023-01-03T18:38:36.111Z,38.50
2023-01-03T18:41:05.746Z,39.33
2023-01-03T18:43:33.794Z,39.50
2023-01-03T18:46:01.611Z,37.98
2023-01-03T18:48:29.383Z,36.65
2023-01-03T18:50:59.396Z,37.23
2023-01-03T18:53:33.324Z,38.38
2023-01-03T18:56:02.387Z,38.95
2023-01-03T18:58:37.339Z,41.05
2023-01-03T19:01:06.191Z,42.40
2023-01-03T19:03:35.403Z,38.67
2023-01-03T19:06:14.685Z,40.70
2023-01-03T19:08:42.789Z,40.48
2023-01-03T19:11:18.281Z,39.15
2023-01-03T19:13:50.804Z,38.53
2023-01-03T19:16:25.862Z,39.13
2023-01-03T19:18:54.352Z,36.30
2023-01-03T19:21:23.377Z,37.70
2023-01-03T19:23:59.367Z,34.90
2023-01-03T19:26:40.926Z,34.23
2023-01-03T19:29:19.397Z,32.13
2023-01-03T19:31:49.590Z,32.67
2023-01-03T19:34:21.075Z,31.57
2023-01-03T19:36:49.412Z,33.18
2023-01-03T19:39:23.999Z,31.68
2023-01-03T19:42:09.525Z,31.68
2023-01-03T19:44:37.247Z,33.30
2023-01-03T19:47:10.225Z,37.42
2023-01-03T19:49:37.696Z,33.55
2023-01-03T19:52:05.247Z,33.50
2023-01-03T19:54:34.154Z,43.48
2023-01-03T19:57:01.622Z,44.75
2023-01-03T19:59:36.767Z,46.37
2023-01-03T20:02:25.018Z,39.40
2023-01-03T20:04:45.374Z,30.80
2023-01-03T20:07:14.893Z,30.23
2023-01-03T20:09:42.545Z,30.45
2023-01-03T20:12:18.603Z,30.62
2023-01-03T20:14:50.359Z,30.60
2023-01-03T20:17:26.050Z,31.35
2023-01-03T20:19:53.504Z,30.97
2023-01-03T20:23:03.617Z,31.97
2023-01-03T20:24:52.399Z,32.80
2023-01-03T20:27:19.940Z,35.00
2023-01-03T20:29:47.717Z,35.05
2023-01-03T20:32:15.471Z,35.38
2023-01-03T20:34:43.115Z,36.30
2023-01-03T20:37:15.743Z,34.43
2023-01-03T20:39:44.690Z,33.48
2023-01-03T20:42:24.273Z,32.83
2023-01-03T20:44:51.658Z,32.65
2023-01-03T20:47:23.457Z,32.05
2023-01-03T20:49:51.063Z,33.00
2023-01-03T20:52:18.711Z,32.00
2023-01-03T20:54:46.256Z,33.63
2023-01-03T20:57:15.990Z,37.78
2023-01-03T20:59:44.233Z,39.03
2023-01-03T21:02:12.636Z,44.53
2023-01-03T21:04:40.858Z,55.45
2023-01-03T21:07:19.800Z,48.38
2023-01-03T21:09:47.550Z,45.20
2023-01-03T21:12:15.091Z,47.05
2023-01-03T21:14:42.769Z,50.75
2023-01-03T21:17:10.606Z,52.27
2023-01-03T21:19:38.683Z,57.80
2023-01-03T21:22:11.815Z,56.08
2023-01-03T21:24:42.723Z,49.80
2023-01-03T21:27:08.846Z,50.83
2023-01-03T21:29:36.661Z,57.05
2023-01-03T21:32:04.976Z,57.53
2023-01-03T21:34:32.475Z,54.25
2023-01-03T21:36:59.923Z,53.70
2023-01-03T21:39:27.503Z,51.30
2023-01-03T21:42:13.521Z,50.90
2023-01-03T21:44:41.242Z,40.92
2023-01-03T21:47:09.200Z,37.67
2023-01-03T21:49:36.783Z,36.90
2023-01-03T21:52:04.898Z,36.48
2023-01-03T21:54:32.723Z,39.70
2023-01-03T21:57:00.667Z,38.92
2023-01-03T21:59:30.496Z,39.80
2023-01-03T22:02:17.187Z,37.17
2023-01-03T22:04:45.516Z,34.43
2023-01-03T22:07:13.066Z,34.53
2023-01-03T22:09:58.922Z,35.05
2023-01-03T22:12:26.457Z,30.15
2023-01-03T22:14:54.211Z,30.50
2023-01-03T22:17:21.715Z,30.20
2023-01-03T22:19:49.453Z,27.52
2023-01-03T22:22:16.901Z,26.55
2023-01-03T22:24:44.551Z,29.40
2023-01-03T22:27:12.245Z,28.07
2023-01-03T22:29:39.970Z,28.27
2023-01-03T22:32:07.785Z,29.52
2023-01-03T22:34:38.615Z,28.27
2023-01-03T22:37:06.173Z,27.65
2023-01-03T22:39:33.730Z,31.87
2023-01-03T22:42:01.181Z,30.27
2023-01-03T22:44:28.627Z,30.12
2023-01-03T22:46:56.082Z,30.25
2023-01-03T22:49:24.035Z,31.57
2023-01-03T22:51:51.733Z,32.63
2023-01-03T22:54:19.495Z,32.08
2023-01-03T22:56:47.412Z,31.93
2023-01-03T22:59:15.487Z,34.03
2023-01-03T23:01:43.550Z,30.37
2023-01-03T23:04:11.615Z,34.08
2023-01-03T23:06:39.275Z,31.57
2023-01-03T23:09:07.030Z,30.43
2023-01-03T23:11:53.348Z,30.88
2023-01-03T23:14:23.255Z,31.25
2023-01-03T23:16:51.916Z,31.97
2023-01-03T23:19:23.551Z,33.92
2023-01-03T23:21:52.903Z,33.50
2023-01-03T23:24:24.710Z,30.45
2023-01-03T23:26:53.350Z,28.35
2023-01-03T23:29:21.695Z,27.87
2023-01-03T23:31:49.298Z,29.10
2023-01-03T23:34:17.125Z,30.43
2023-01-03T23:36:44.950Z,33.50
2023-01-03T23:39:15.742Z,28.12
2023-01-03T23:41:43.595Z,32.40
2023-01-03T23:44:11.490Z,33.23
2023-01-03T23:46:39.089Z,32.10
2023-01-03T23:49:06.903Z,38.78
2023-01-03T23:51:36.205Z,36.30
2023-01-03T23:54:03.895Z,33.28
2023-01-03T23:56:31.755Z,46.75
2023-01-03T23:58:59.487Z,65.60
